Warm Springs Summit, Nevada Weather observations

Data are for observation ending at time listed.
 Day   Time    Ave.   Ave.  Ave.  Vector   Max.   Stn.    Total    Solar   Ave.  
  of    of     Air    Rel.  Wind   Wind    Wind   Baro.  Precip.   Rad.    Soil  
Year   Day     Temp.  Hum.  Speed  Dir.    Gust   Pres.                    Temp. 
2016   (PST)    F      %     mph   deg.    mph     mb.     in.     W/m2     F   
------------------------------------------------------------------------------
 237    5:10   58.5    26   13.6   266     15.4   778.2    0.00       6    72.4
 237    5:20   58.3    26   13.4   268     14.8   778.2    0.00      17    72.3
 237    5:30   58.5    26   13.6   262     16.1   778.2    0.00      38    72.2
 237    5:40   59.3    25   12.5   260     14.4   778.2    0.00      69    72.1
 237    5:50   59.5    25   10.6   265     12.9   778.3    0.00     105    71.8
 237    6:00   60.5    24   11.2   262     14.6   778.3    0.00     140    71.9
 237    6:10   60.0    25   12.6   260     15.0   778.4    0.00     171    71.8
 237    6:20   59.0    24   13.4   264     15.4   778.4    0.00     203    71.7
 237    6:30   59.8    23   14.1   259     16.1   778.4    0.00     238    71.6
 237    6:40   59.8    23   13.2   263     15.8   778.5    0.00     271    71.6
 237    6:50   60.2    23   13.2   260     15.2   778.6    0.00     309    71.5
 237    7:00   60.5    23   14.1   258     16.3   778.6    0.00     346    71.4
 237    7:10   60.8    22   15.5   262     18.0   778.6    0.00     385    71.4
 237    7:20   61.7    21   14.9   259     18.0   778.6    0.00     422    71.3
 237    7:30   62.0    21   14.8   258     18.0   778.6    0.00     456    71.2
 237    7:40   62.1    21   15.1   261     17.7   778.7    0.00     490    71.2
 237    7:50   62.5    21   14.5   259     17.7   778.7    0.00     524    71.1
 237    8:00   62.7    20   14.2   261     17.3   778.8    0.00     557    71.1
 237    8:10   63.1    20   13.5   259     17.2   778.8    0.00     591    71.1
 237    8:20   63.6    20   13.5   261     16.0   778.9    0.00     624    71.1
 237    8:30   64.1    20   13.1   262     15.8   778.9    0.00     658    71.1
 237    8:40   64.5    20   13.6   258     16.5   779.0    0.00     688    71.2
 237    8:50   66.0    18   13.7   264     18.0   779.0    0.00     719    71.2
 237    9:00   66.7    16   15.1   258     21.3   778.9    0.00     748    71.2
 237    9:10   67.2    15   14.4   263     23.1   778.9    0.00     776    71.3
 237    9:20   67.3    14   13.2   269     19.0   778.9    0.00     800    71.4
 237    9:30   68.8    13   12.6   267     18.3   779.0    0.00     823    71.5
 237    9:40   69.6    13   12.2   260     19.1   778.9    0.00     845    71.6
 237    9:50   69.7    13    9.7   266     18.9   778.9    0.00     866    71.7
 237   10:00   71.2    12   12.2   276     19.7   778.8    0.00     886    71.9
 237   10:10   72.0    11    9.5   290     16.2   778.7    0.00     905    72.1
 237   10:20   72.5    10    9.3   280     16.3   778.7    0.00     922    72.3
 237   10:30   72.6    10   11.9   259     20.3   778.6    0.00     937    72.5
 237   10:40   72.8     9   12.4   255     21.0   778.5    0.00     948    72.7
 237   10:50   73.1     8   18.1   264     30.6   778.2    0.00     962    72.9
 237   11:00   73.3     7   20.5   258     32.6   778.0    0.00     973    73.1
 237   11:10   72.7     7   24.1   259     31.9   777.8    0.00     982    73.4
 237   11:20   73.0     8   23.9   259     36.7   777.7    0.00     986    73.6
 237   11:30   72.9     8   25.4   265     33.2   777.6    0.00     990    73.9
 237   11:40   73.2     8   25.3   267     36.0   777.5    0.00     991    74.1
 237   11:50   73.9     8   26.2   268     35.5   777.4    0.00     990    74.4
 237   12:00   74.4     7   26.4   272     35.1   777.3    0.00     992    74.7
 237   12:10   74.9     7   26.0   266     42.1   777.2    0.00     987    74.9
 237   12:20   74.5     7   25.7   268     35.2   777.2    0.00     981    75.2
 237   12:30   75.2     7   23.3   271     34.0   777.3    0.00     973    75.5
 237   12:40   75.1     7   25.2   272     37.3   777.3    0.00     965    75.8
 237   12:50   75.2     7   23.8   277     31.8   777.3    0.00     954    76.0
 237   13:00   75.8     7   27.0   275     38.1   777.1    0.00     943    76.3
 237   13:10   75.0     7   25.0   267     34.5   777.0    0.00     930    76.5
 237   13:20   74.9     7   24.6   260     36.9   776.9    0.00     914    76.7
 237   13:30   75.4     8   25.1   268     38.3   776.8    0.00     897    77.0
 237   13:40   75.5     8   24.2   268     38.5   776.8    0.00     875    77.2
 237   13:50   76.7     7   24.0   279     33.0   776.8    0.00     858    77.4
 237   14:00   76.0     7   27.1   268     35.9   776.6    0.00     837    77.6
 237   14:10   75.0     7   29.1   264     39.0   776.4    0.00     814    77.8
 237   14:20   75.4     7   28.5   266     36.9   776.3    0.00     790    78.1
 237   14:30   75.9     7   26.9   267     39.1   776.2    0.00     778    78.3
 237   14:40   76.0     7   26.2   271     39.5   776.2    0.00     642    78.5
 237   14:50   75.1     7   28.7   273     40.4   776.1    0.00     656    78.7
 237   15:00   76.0     6   27.4   272     38.5   776.0    0.00     710    78.8
 237   15:10   75.7     6   29.6   272     41.1   775.9    0.00     665    78.9
 237   15:20   75.6     6   28.5   274     38.6   775.9    0.00     627    79.1
 237   15:30   75.6     6   26.9   273     34.3   776.0    0.00     587    79.2
 237   15:40   75.3     7   28.9   274     40.4   775.8    0.00     556    79.4
 237   15:50   75.2     6   30.4   275     41.8   775.7    0.00     519    79.5
 237   16:00   75.2     7   27.4   272     34.5   775.8    0.00     483    79.6
 237   16:10   75.1     7   26.2   274     34.7   775.8    0.00     448    79.6
 237   16:20   74.9     7   27.5   275     37.4   775.7    0.00     413    79.7
 237   16:30   74.6     6   29.7   274     38.1   775.5    0.00     378    79.8
 237   16:40   74.8     7   26.9   273     33.6   775.5    0.00     341    79.8
 237   16:50   74.3     7   28.5   276     38.0   775.4    0.00     304    79.8
 237   17:00   74.2     7   25.4   270     31.0   775.5    0.00     268    79.8
 237   17:10   74.3     7   23.2   275     35.1   775.6    0.00     231    79.8
 237   17:20   74.1     7   23.4   281     28.6   775.5    0.00     194    79.8
 237   17:30   73.8     7   23.5   282     30.5   775.5    0.00     161    79.8
 237   17:40   73.6     7   21.1   279     27.5   775.5    0.00     125    79.8
 237   17:50   73.1     8   20.4   276     26.4   775.6    0.00      82    79.8
 237   18:00   72.3     8   21.3   276     25.4   775.6    0.00      42    79.8
 237   18:10   71.7     9   18.9   280     23.8   775.7    0.00      18    79.7
 237   18:20   71.0    10   19.1   278     24.8   775.7    0.00       7    79.6
 237   18:30   70.5    10   20.3   278     26.5   775.7    0.00       2    79.6
 237   18:40   70.3    10   19.4   274     23.3   775.7    0.00       1    79.5
 237   18:50   69.9    11   17.1   278     20.4   775.8    0.00       0    79.4
 237   19:00   69.7    11   16.2   276     19.1   775.9    0.00       0    79.4
 237   19:10   69.4    11   14.9   278     18.5   775.9    0.00       0    79.3
 237   19:20   69.1    11   13.0   286     15.8   776.0    0.00       0    79.1
 237   19:30   68.8    11   12.8   297     15.2   776.1    0.00       0    79.0
 237   19:40   68.6    10   11.9   305     15.1   776.1    0.00       0    78.9
 237   19:50   69.0    10   10.8   313     13.5   776.1    0.00       0    78.7
 237   20:00   69.6     9    9.8   320     12.8   776.1    0.00       0    78.7
 237   20:10   69.7     8   10.1   318     13.6   776.1    0.00       0    78.6
 237   20:20   68.9     9   11.3   324     15.1   776.1    0.00       0    78.4
 237   20:30   68.5     9   11.8   318     15.5   776.1    0.00       0    78.3
 237   20:40   68.3     9   11.1   331     14.2   776.1    0.00       0    78.2
 237   20:50   68.3     9   12.1   336     17.4   776.1    0.00       0    78.0
 237   21:00   68.0    10   12.5   335     16.2   776.0    0.00       0    77.8
 237   21:10   68.0    10   11.5   340     15.4   776.1    0.00       0    77.7
 237   21:20   68.3    10   10.5   346     14.4   776.0    0.00       0    77.6
 237   21:30   68.1    10    9.1   347     13.9   776.0    0.00       0    77.4
 237   21:40   67.7    10    7.9   352     12.9   776.1    0.00       0    77.3
 237   21:50   66.4    10    5.2     8      9.3   776.1    0.00       0    77.2
 237   22:00   65.6    10    5.3    16      9.2   776.1    0.00       0    77.0
 237   22:10   65.2    10    4.4    45     11.5   776.1    0.00       0    76.9
 237   22:20   65.4    10    7.4    49     10.9   776.0    0.00       0    76.8
 237   22:30   64.7    11    4.9    17      9.3   776.0    0.00       0    76.6
 237   22:40   64.7    11    4.8    38     10.6   776.2    0.00       0    76.5
 237   22:50   65.1    11    6.3    42     10.0   776.2    0.00       0    76.4
 237   23:00   64.9    11    6.4    52      8.8   776.2    0.00       0    76.2
 237   23:10   65.0    12    6.6    58      8.9   776.3    0.00       0    76.1
 237   23:20   64.8    12    6.7    54      8.7   776.2    0.00       0    76.0
 237   23:30   64.8    12    6.2    47      9.3   776.2    0.00       0    75.8
 237   23:40   64.3    12    7.4    78      9.3   776.2    0.00       0    75.7
 237   23:50   63.5    12    6.5    90      7.6   776.2    0.00       0    75.6
 238    0:00   63.0    13    7.1    98      9.6   776.2    0.00       0    75.5
 238    0:10   62.5    13    8.4    93     10.7   776.2    0.00       0    75.3
 238    0:20   62.0    13   10.3    81     13.3   776.1    0.00       0    75.2
 238    0:30   62.3    13   11.1    73     14.3   776.1    0.00       0    75.1
 238    0:40   62.8    13   12.1    65     15.4   776.1    0.00       0    74.9
 238    0:50   63.2    13   10.3    72     13.0   776.0    0.00       0    74.8
 238    1:00   63.1    13   10.1    73     12.2   776.0    0.00       0    74.7
 238    1:10   63.3    13   10.1    69     13.7   776.0    0.00       0    74.6
 238    1:20   63.0    13    8.8    70     10.9   776.0    0.00       0    74.5
 238    1:30   63.4    13    9.3    64     10.6   775.9    0.00       0    74.3
 238    1:40   63.0    13    8.4    54     11.4   775.8    0.00       0    74.2
 238    1:50   62.9    13    7.7    47     10.7   775.8    0.00       0    74.1
 238    2:00   62.8    13    7.6    44     10.9   775.8    0.00       0    74.0
 238    2:10   62.5    13    6.8    26      9.5   775.7    0.00       0    73.9
 238    2:20   62.2    13    6.0    14      9.8   775.6    0.00       0    73.7
 238    2:30   62.0    13    6.6     0      9.4   775.5    0.00       0    73.6
 238    2:40   61.8    14    6.3     2      9.5   775.5    0.00       0    73.5
 238    2:50   61.7    14    6.0     2      8.8   775.5    0.00       0    73.4
 238    3:00   61.8    13    5.6     7      8.4   775.5    0.00       0    73.3
 238    3:10   62.1    13    6.2    15      8.7   775.5    0.00       0    73.2
 238    3:20   62.0    13    6.2    18      7.7   775.4    0.00       0    73.1
 238    3:30   62.6    13    5.8    38      6.8   775.4    0.00       0    73.0
 238    3:40   62.9    13    5.7    34      6.5   775.4    0.00       0    72.8
 238    3:50   62.8    13    4.8    30      6.0   775.4    0.00       0    72.7
 238    4:00   63.8    13    5.1    57      6.6   775.4    0.00       0    72.6
 238    4:10   64.5    12    5.6    62      7.2   775.4    0.00       0    72.5
 238    4:20   63.4    13    5.3    38      6.5   775.4    0.00       0    72.4
 238    4:30   62.8    13    5.6    38      6.6   775.4    0.00       0    72.3
 238    4:40   63.1    13    5.8    39      6.5   775.4    0.00       0    72.2
 238    4:50   63.0    13    5.9    40      6.8   775.4    0.00       1    72.1
 238    5:00   63.0    13    6.1    53      6.8   775.5    0.00       2    71.9

Return to Warm Springs Summit, Nevada graphs page.


Western Regional Climate Center,wrcc@dri.edu